LEPP/PNA METAR and TAF weather

Enter ICAO airport designator
Station Type Date Time Source
LEPP METAR 2019/10/23 02:00 UTC NOAA

LEPP 230200Z AUTO 31005KT 220V020 CAVOK 11/09 Q1003


Station Type Date Time Source
LEPP Decoded METAR 2019/10/23 02:00 UTC NOAA

Pamplona / Noain, Spain (LEPP) 42-46N 001-38W 453M
Oct 22, 2019 - 10:00 PM EDT / 2019.10.23 0200 UTC
Wind: from the NW (310 degrees) at 6 MPH (5 KT) (direction variable):0
Visibility: greater than 7 mile(s):0
Temperature: 51 F (11 C)
Dew Point: 48 F (9 C)
Relative Humidity: 87%
Pressure (altimeter): 29.62 in. Hg (1003 hPa)
ob: LEPP 230200Z AUTO 31005KT 220V020 CAVOK 11/09 Q1003
cycle: 2

Station Type Date Time Source
LEPP TAF 2019/10/22 21:27 UTC NOAA

TAF LEPP 222000Z 2221/2321 34009KT 9999 BKN025 TX14/2315Z TN08/2309Z
BECMG 2308/2310 18010KT
TEMPO 2221/2321 3000 RA BKN014 PROB40
TEMPO 2306/2321 3000 SHRA SCT020TCU PROB40
TEMPO 2309/2321 1500 TS SHRA SCT020CB

Example: see airport list